Weather at Nuremberg Airport

Public forecast

Using degrees Celsius for public forecast. Weather courtesy of forecast.io.

Current aviation weather report (METAR) for Nuremberg Airport

Retrieved 2020/09/26 20:20 UTC (7 minutes ago):

EDDN 262020Z 21009KT 9999 -RA BKN010 08/07 Q0998

Aviation forecast (TAF) for Nuremberg Airport

Retrieved 2020/09/26 18:37 UTC (2 hours ago):

TAF EDDN 261700Z 2618/2718 24008KT 9999 BKN012 PROB30 TEMPO 2618/2621 RA BKN008 BECMG 2622/2624 BKN020 BECMG 2715/2717 VRB03KT